Time;durP1;ratioP1;P1;durP2;ratioP2;P2;SDS_P1;SDS_P2;PMS_P1;PMS_P2;Temp;Humidity;BMP_temperature;BMP_pressure;BME280_temperature;BME280_humidity;BME280_pressure;Samples;Min_cycle;Max_cycle;Signal;HPM_P1;HPM_P2
2021/06/15 00:00:36;;;;;;;8.73;4.45;;;23.00;68.50;;;;;;4947949;28;20030;-85
2021/06/15 00:03:02;;;;;;;6.72;4.38;;;23.00;68.60;;;;;;4957939;28;20039;-86
2021/06/15 00:05:27;;;;;;;6.28;4.47;;;23.00;68.40;;;;;;4957662;28;20443;-86
2021/06/15 00:07:53;;;;;;;7.63;4.78;;;22.90;68.50;;;;;;4964723;28;20380;-86
2021/06/15 00:10:24;;;;;;;8.18;4.30;;;22.90;68.40;;;;;;4951817;28;20030;-86
2021/06/15 00:12:52;;;;;;;7.53;4.07;;;22.80;68.70;;;;;;4970618;28;20122;-86
2021/06/15 00:15:19;;;;;;;10.32;4.70;;;22.80;68.70;;;;;;4973760;28;20594;-86
2021/06/15 00:17:45;;;;;;;8.70;4.13;;;22.80;68.90;;;;;;4973895;28;20083;-85
2021/06/15 00:20:12;;;;;;;7.68;4.28;;;22.70;68.80;;;;;;4928273;28;20096;-85
2021/06/15 00:22:38;;;;;;;7.00;4.15;;;22.70;69.10;;;;;;4965031;28;20072;-86
2021/06/15 00:25:05;;;;;;;9.48;4.57;;;22.70;69.10;;;;;;4937897;28;20125;-86
2021/06/15 00:27:31;;;;;;;14.10;5.03;;;22.70;69.40;;;;;;4996277;28;20031;-86
2021/06/15 00:29:57;;;;;;;7.20;4.53;;;22.60;69.60;;;;;;4966696;28;20053;-85
2021/06/15 00:32:24;;;;;;;7.82;4.30;;;22.60;69.50;;;;;;4957657;28;20037;-85
2021/06/15 00:34:49;;;;;;;10.05;4.55;;;22.60;69.60;;;;;;4962434;28;20022;-86
2021/06/15 00:37:15;;;;;;;7.90;4.10;;;22.50;69.40;;;;;;4957331;28;20021;-86
2021/06/15 00:39:41;;;;;;;6.60;4.00;;;22.50;69.60;;;;;;4938217;28;20039;-86
2021/06/15 00:42:07;;;;;;;7.65;4.20;;;22.50;69.70;;;;;;4941923;28;20096;-86
2021/06/15 00:44:34;;;;;;;7.45;3.92;;;22.40;70.40;;;;;;4970937;28;20026;-86
2021/06/15 00:47:00;;;;;;;8.15;4.40;;;22.40;69.80;;;;;;4953991;28;20091;-86
2021/06/15 00:49:29;;;;;;;8.57;4.85;;;22.40;69.80;;;;;;4990617;28;20030;-86
2021/06/15 00:51:55;;;;;;;10.80;4.80;;;22.30;69.80;;;;;;4973644;28;20015;-86
2021/06/15 00:54:36;;;;;;;9.90;4.47;;;22.30;69.90;;;;;;4976875;28;20110;-86
2021/06/15 00:57:03;;;;;;;8.25;4.55;;;22.30;70.20;;;;;;4973255;28;20030;-86
2021/06/15 00:59:29;;;;;;;6.88;4.32;;;22.20;70.10;;;;;;4959202;28;20031;-85
2021/06/15 01:01:55;;;;;;;6.53;3.83;;;22.20;70.20;;;;;;4937942;28;20041;-86
2021/06/15 01:04:21;;;;;;;5.47;3.85;;;22.20;70.20;;;;;;4970481;28;20029;-86
2021/06/15 01:07:16;;;;;;;10.15;4.18;;;22.10;70.20;;;;;;4969372;28;20076;-86
2021/06/15 01:10:01;;;;;;;6.50;3.92;;;22.10;70.40;;;;;;4977811;28;20042;-86
2021/06/15 01:12:47;;;;;;;7.13;3.90;;;22.00;70.50;;;;;;4975917;28;20037;-86
2021/06/15 01:15:25;;;;;;;6.20;4.05;;;22.00;70.50;;;;;;4957309;28;20035;-86
2021/06/15 01:17:51;;;;;;;6.30;3.88;;;22.00;70.40;;;;;;4970355;28;20021;-86
2021/06/15 01:20:22;;;;;;;7.72;4.20;;;22.00;70.40;;;;;;4966116;28;20075;-86
2021/06/15 01:23:10;;;;;;;7.47;4.18;;;21.90;70.60;;;;;;4976499;28;20069;-86
2021/06/15 01:26:16;;;;;;;5.30;3.50;;;21.90;70.70;;;;;;5004942;28;20590;-86
2021/06/15 01:29:06;;;;;;;6.43;3.60;;;21.90;70.40;;;;;;5005482;22;20061;-85
2021/06/15 01:31:39;;;;;;;5.10;3.63;;;21.80;70.50;;;;;;5035026;28;20078;-86
2021/06/15 01:34:27;;;;;;;7.05;3.40;;;21.70;70.60;;;;;;5035113;28;20383;-86
2021/06/15 01:37:09;;;;;;;7.22;3.65;;;21.70;70.40;;;;;;5037912;28;20021;-85
2021/06/15 01:40:02;;;;;;;6.90;3.90;;;21.70;70.70;;;;;;5034978;28;20021;-85
2021/06/15 01:42:40;;;;;;;7.20;3.65;;;21.60;70.90;;;;;;5034657;28;20038;-86
2021/06/15 01:45:17;;;;;;;8.27;3.65;;;21.60;70.90;;;;;;5036353;28;20021;-86
2021/06/15 01:48:06;;;;;;;7.57;3.78;;;21.60;71.00;;;;;;5029746;28;20021;-86
2021/06/15 01:50:37;;;;;;;5.35;3.55;;;21.50;70.80;;;;;;5023133;28;20022;-86
2021/06/15 01:53:08;;;;;;;6.03;3.40;;;21.50;70.80;;;;;;5034720;28;20018;-86
2021/06/15 01:55:35;;;;;;;6.45;3.75;;;21.50;70.80;;;;;;5034883;28;20024;-85
2021/06/15 01:58:02;;;;;;;6.82;3.47;;;21.40;70.80;;;;;;5034634;28;20032;-85
2021/06/15 02:00:29;;;;;;;6.13;3.60;;;21.40;70.90;;;;;;5018339;28;20029;-86
2021/06/15 02:02:55;;;;;;;8.32;3.95;;;21.40;71.00;;;;;;5017677;28;20032;-86
2021/06/15 02:05:37;;;;;;;8.18;3.72;;;21.40;71.40;;;;;;5018185;28;20044;-85
2021/06/15 02:08:05;;;;;;;6.18;3.47;;;21.30;71.20;;;;;;5020573;28;20026;-86
2021/06/15 02:10:31;;;;;;;5.57;3.22;;;21.30;71.10;;;;;;5027816;28;20068;-86
2021/06/15 02:12:57;;;;;;;6.32;3.30;;;21.20;71.30;;;;;;5027503;28;20018;-86
2021/06/15 02:15:25;;;;;;;7.70;3.80;;;21.30;71.20;;;;;;5014625;28;20120;-86
2021/06/15 02:17:54;;;;;;;9.80;3.60;;;21.20;71.10;;;;;;5027210;28;20029;-86
2021/06/15 02:20:42;;;;;;;5.90;3.08;;;21.10;71.10;;;;;;5034233;28;20103;-86
2021/06/15 02:23:11;;;;;;;6.00;3.10;;;21.10;71.00;;;;;;5034236;28;20021;-86
2021/06/15 02:25:39;;;;;;;5.07;3.20;;;21.10;71.30;;;;;;5035343;28;20017;-86
2021/06/15 02:28:05;;;;;;;5.65;3.42;;;21.10;71.10;;;;;;5033879;28;20026;-86
2021/06/15 02:30:31;;;;;;;4.88;2.95;;;21.00;71.20;;;;;;4998554;28;20045;-86
2021/06/15 02:33:05;;;;;;;6.47;3.33;;;21.00;71.10;;;;;;5006917;28;20375;-86
2021/06/15 02:35:31;;;;;;;4.78;3.30;;;21.00;71.20;;;;;;5034105;28;20024;-86
2021/06/15 02:38:08;;;;;;;5.38;2.75;;;20.90;71.20;;;;;;5033738;28;20028;-86
2021/06/15 02:40:34;;;;;;;4.18;2.78;;;20.90;71.50;;;;;;5033655;28;20055;-86
2021/06/15 02:43:00;;;;;;;4.50;2.60;;;20.90;71.50;;;;;;5033806;28;20482;-86
2021/06/15 02:45:42;;;;;;;5.10;3.03;;;20.90;71.60;;;;;;5017308;28;20055;-86
2021/06/15 02:48:11;;;;;;;5.72;3.15;;;20.90;71.90;;;;;;5005354;28;20029;-86
2021/06/15 02:50:38;;;;;;;6.22;3.17;;;20.80;71.60;;;;;;5033473;28;20477;-86
2021/06/15 02:53:07;;;;;;;5.25;2.63;;;20.80;71.60;;;;;;5017183;28;20120;-86
2021/06/15 02:55:46;;;;;;;7.05;3.03;;;20.80;71.70;;;;;;5033320;28;20097;-86
2021/06/15 02:58:11;;;;;;;6.30;2.95;;;20.80;71.80;;;;;;5033319;28;20033;-86
2021/06/15 03:00:37;;;;;;;6.50;3.00;;;20.70;71.80;;;;;;5016647;28;20091;-86
2021/06/15 03:03:06;;;;;;;4.43;2.75;;;20.70;72.00;;;;;;4996857;28;20022;-86
2021/06/15 03:05:33;;;;;;;6.95;3.05;;;20.70;72.10;;;;;;5023735;28;20029;-86
2021/06/15 03:07:59;;;;;;;5.72;3.40;;;20.70;72.20;;;;;;5016748;28;20124;-86
2021/06/15 03:10:26;;;;;;;6.57;3.30;;;20.70;72.50;;;;;;5033338;28;20116;-86
2021/06/15 03:13:13;;;;;;;4.75;3.17;;;20.70;72.60;;;;;;5033180;28;20029;-86
2021/06/15 03:15:44;;;;;;;8.60;3.58;;;20.70;72.80;;;;;;5034305;28;20018;-86
2021/06/15 03:18:30;;;;;;;5.95;3.15;;;20.70;72.70;;;;;;5032904;28;20025;-86
2021/06/15 03:21:05;;;;;;;5.95;2.83;;;20.60;72.80;;;;;;5033175;28;20026;-86
2021/06/15 03:23:33;;;;;;;5.47;2.65;;;20.60;72.60;;;;;;5032944;28;20037;-86
2021/06/15 03:26:03;;;;;;;6.78;3.03;;;20.60;72.30;;;;;;5033046;28;20026;-86
2021/06/15 03:28:31;;;;;;;4.45;2.53;;;20.60;72.40;;;;;;5031912;28;20091;-86
2021/06/15 03:30:58;;;;;;;6.25;2.38;;;20.60;72.20;;;;;;5032928;28;20033;-85
2021/06/15 03:33:24;;;;;;;4.07;2.63;;;20.60;72.00;;;;;;5018937;28;20479;-86
2021/06/15 03:35:52;;;;;;;6.55;2.60;;;20.60;72.30;;;;;;5032803;28;20059;-86
2021/06/15 03:38:18;;;;;;;4.18;2.42;;;20.50;72.10;;;;;;5034052;28;20029;-85
2021/06/15 03:40:48;;;;;;;5.30;2.40;;;20.50;72.90;;;;;;4985882;28;20033;-86
2021/06/15 03:43:16;;;;;;;5.00;2.23;;;20.50;72.30;;;;;;5025379;28;20432;-86
2021/06/15 03:45:47;;;;;;;3.10;2.17;;;20.50;72.00;;;;;;5016552;28;20029;-86
2021/06/15 03:48:14;;;;;;;;;;;20.50;71.90;;;;;;5034258;28;20028;-86
2021/06/15 03:50:41;;;;;;;6.25;2.22;;;20.50;71.50;;;;;;5032560;28;19909;-86
2021/06/15 03:53:09;;;;;;;4.47;2.13;;;20.40;71.80;;;;;;5032595;28;20013;-86
2021/06/15 03:55:38;;;;;;;4.57;2.00;;;20.40;71.90;;;;;;5032520;28;20052;-86
2021/06/15 03:58:07;;;;;;;4.18;2.08;;;20.40;71.80;;;;;;5032518;28;20479;-86
2021/06/15 04:00:34;;;;;;;4.13;2.20;;;20.40;71.70;;;;;;5032474;28;20039;-86
2021/06/15 04:03:03;;;;;;;4.68;2.10;;;20.40;71.60;;;;;;5015708;28;20199;-86
2021/06/15 04:05:30;;;;;;;4.55;2.00;;;20.40;71.60;;;;;;5032164;28;20471;-85
2021/06/15 04:08:00;;;;;;;4.68;2.17;;;20.40;71.50;;;;;;5015903;28;20033;-86
2021/06/15 04:10:26;;;;;;;4.65;1.90;;;20.40;71.40;;;;;;5033544;28;20072;-86
2021/06/15 04:12:55;;;;;;;3.75;1.80;;;20.30;71.40;;;;;;4999368;28;20021;-86
2021/06/15 04:15:24;;;;;;;4.82;2.00;;;20.30;71.20;;;;;;5016018;28;20060;-86
2021/06/15 04:17:51;;;;;;;4.68;2.28;;;20.30;71.10;;;;;;5031832;28;20045;-86
2021/06/15 04:20:23;;;;;;;3.78;1.83;;;20.30;71.20;;;;;;5031917;28;20108;-86
2021/06/15 04:22:51;;;;;;;2.85;1.65;;;20.30;71.20;;;;;;5032092;28;20053;-86
2021/06/15 04:25:24;;;;;;;3.33;1.88;;;20.30;71.20;;;;;;5032086;28;20029;-86
2021/06/15 04:27:50;;;;;;;3.00;1.60;;;20.30;71.00;;;;;;5032024;28;20028;-86
2021/06/15 04:30:19;;;;;;;3.63;1.70;;;20.30;71.10;;;;;;4995689;28;20415;-86
2021/06/15 04:33:03;;;;;;;4.32;1.77;;;20.30;71.30;;;;;;5015707;28;20025;-85
2021/06/15 04:35:51;;;;;;;3.63;1.80;;;20.20;71.50;;;;;;5032054;28;20033;-86
2021/06/15 04:38:51;;;;;;;4.32;1.75;;;20.20;71.20;;;;;;5031931;28;20467;-86
2021/06/15 04:41:20;;;;;;;3.03;1.80;;;20.30;71.00;;;;;;5031262;28;20021;-87
2021/06/15 04:43:54;;;;;;;4.20;1.58;;;20.20;70.80;;;;;;5019183;28;20060;-86
2021/06/15 04:46:25;;;;;;;3.47;1.30;;;20.20;70.00;;;;;;5033026;28;20029;-86
2021/06/15 04:49:21;;;;;;;3.75;1.30;;;20.20;69.70;;;;;;5031764;28;20072;-86
2021/06/15 04:51:50;;;;;;;2.53;1.15;;;20.20;69.20;;;;;;5031772;28;20029;-86
2021/06/15 04:54:20;;;;;;;2.67;1.35;;;20.20;68.70;;;;;;5032998;28;20029;-86
2021/06/15 04:56:49;;;;;;;3.40;1.27;;;20.10;68.60;;;;;;5032108;28;20025;-86
2021/06/15 04:59:22;;;;;;;3.80;1.30;;;20.10;69.20;;;;;;5031187;28;20032;-86
2021/06/15 05:01:48;;;;;;;2.63;1.30;;;20.10;68.60;;;;;;5020406;28;20032;-86
2021/06/15 05:04:14;;;;;;;1.88;1.10;;;20.10;68.70;;;;;;5031502;28;20124;-86
2021/06/15 05:06:40;;;;;;;2.97;1.10;;;20.10;68.70;;;;;;5015049;28;20471;-86
2021/06/15 05:09:08;;;;;;;5.38;1.40;;;20.00;68.70;;;;;;5015192;28;20026;-86
2021/06/15 05:11:37;;;;;;;3.13;1.40;;;20.00;68.70;;;;;;5031235;28;20026;-86
2021/06/15 05:14:08;;;;;;;4.18;1.38;;;20.00;69.10;;;;;;5031538;28;20014;-86
2021/06/15 05:16:36;;;;;;;3.53;1.40;;;20.00;68.80;;;;;;5031378;28;20024;-86
2021/06/15 05:19:03;;;;;;;5.13;1.45;;;20.00;69.00;;;;;;5031430;28;20013;-86
2021/06/15 05:22:05;;;;;;;3.38;1.23;;;20.00;69.00;;;;;;5015188;28;20486;-85
2021/06/15 05:24:51;;;;;;;2.92;1.20;;;20.00;68.60;;;;;;5036786;28;20052;-86
2021/06/15 05:27:19;;;;;;;2.70;1.13;;;19.90;68.80;;;;;;5031407;28;20474;-86
2021/06/15 05:29:45;;;;;;;4.43;1.10;;;20.00;69.10;;;;;;5014671;28;20443;-86
2021/06/15 05:32:11;;;;;;;6.68;1.55;;;20.00;69.20;;;;;;5031288;28;20108;-86
2021/06/15 05:35:07;;;;;;;4.63;1.08;;;20.00;69.10;;;;;;5030446;28;20490;-86
2021/06/15 05:37:33;;;;;;;3.78;1.50;;;20.00;68.80;;;;;;5012729;28;20053;-86
2021/06/15 05:40:00;;;;;;;2.70;1.20;;;20.00;68.70;;;;;;4995246;28;20061;-86
2021/06/15 05:42:26;;;;;;;3.78;1.30;;;20.00;68.80;;;;;;5030960;28;20025;-86
2021/06/15 05:44:51;;;;;;;3.15;1.38;;;19.90;68.70;;;;;;5014713;28;20390;-87
2021/06/15 05:47:17;;;;;;;2.40;1.25;;;20.00;68.80;;;;;;5014860;28;20040;-86
2021/06/15 05:49:43;;;;;;;4.55;1.25;;;20.00;68.70;;;;;;5030344;28;20013;-86
2021/06/15 05:52:11;;;;;;;3.65;1.02;;;20.00;68.90;;;;;;5016964;28;20030;-86
2021/06/15 05:54:37;;;;;;;3.03;1.35;;;20.00;69.10;;;;;;5035766;28;20104;-86
2021/06/15 05:57:04;;;;;;;5.50;1.38;;;20.00;69.20;;;;;;5018129;28;20025;-86
2021/06/15 05:59:30;;;;;;;3.25;1.02;;;20.00;68.80;;;;;;5034575;28;20029;-86
2021/06/15 06:01:55;;;;;;;3.05;1.20;;;20.00;68.90;;;;;;5034496;28;20033;-86
2021/06/15 06:04:35;;;;;;;4.65;1.38;;;20.00;68.50;;;;;;5034026;28;20030;-86
2021/06/15 06:09:45;;;;;;;6.13;1.13;;;20.00;68.70;;;;;;5035698;28;20506;-86
2021/06/15 06:12:11;;;;;;;3.00;1.20;;;20.00;69.10;;;;;;5017965;28;20038;-86
2021/06/15 06:14:37;;;;;;;3.58;0.90;;;20.10;69.50;;;;;;5017442;28;20485;-86
2021/06/15 06:17:03;;;;;;;4.35;1.10;;;20.10;69.60;;;;;;5034229;28;20021;-86
2021/06/15 06:19:30;;;;;;;3.72;1.33;;;20.10;69.50;;;;;;5017478;28;20041;-86
2021/06/15 06:21:56;;;;;;;4.45;1.42;;;20.10;69.20;;;;;;5034229;28;20467;-86
2021/06/15 06:24:22;;;;;;;6.30;1.23;;;20.10;69.20;;;;;;5035270;28;20112;-86
2021/06/15 06:26:52;;;;;;;5.38;1.25;;;20.10;69.30;;;;;;5035384;28;20021;-86
2021/06/15 06:29:19;;;;;;;5.47;1.65;;;20.20;69.50;;;;;;5022064;28;20045;-86
2021/06/15 06:31:45;;;;;;;5.75;1.30;;;20.10;69.50;;;;;;5015208;28;20422;-86
2021/06/15 06:34:11;;;;;;;5.22;1.38;;;20.20;69.50;;;;;;5014267;28;20038;-86
2021/06/15 06:36:36;;;;;;;6.20;2.70;;;20.20;69.60;;;;;;5031496;28;20372;-86
2021/06/15 06:39:07;;;;;;;4.60;1.80;;;20.20;69.90;;;;;;5034088;28;20029;-86
2021/06/15 06:41:33;;;;;;;5.32;1.63;;;20.20;70.20;;;;;;5014345;28;20034;-86
2021/06/15 06:43:59;;;;;;;4.50;1.00;;;20.20;70.00;;;;;;5035013;28;20105;-86
2021/06/15 06:46:25;;;;;;;5.15;1.50;;;20.20;70.00;;;;;;5033533;28;20116;-86
2021/06/15 06:49:09;;;;;;;6.90;1.55;;;20.20;70.20;;;;;;5016856;28;20379;-86
2021/06/15 06:51:35;;;;;;;4.05;1.20;;;20.20;70.30;;;;;;5031177;28;20030;-86
2021/06/15 06:54:01;;;;;;;5.30;1.67;;;20.10;69.60;;;;;;5013591;28;20032;-86
2021/06/15 06:56:30;;;;;;;5.57;2.30;;;20.20;69.60;;;;;;5000490;28;20422;-86
2021/06/15 06:58:55;;;;;;;5.32;1.98;;;20.20;69.80;;;;;;5033181;28;20027;-86
2021/06/15 07:01:22;;;;;;;4.63;1.73;;;20.20;69.40;;;;;;5016729;28;20465;-86
2021/06/15 07:03:48;;;;;;;4.63;1.60;;;20.20;69.30;;;;;;5015508;28;20030;-86
2021/06/15 07:06:15;;;;;;;2.38;1.00;;;20.20;69.50;;;;;;5014991;28;20060;-86
2021/06/15 07:08:41;;;;;;;3.80;0.95;;;20.20;69.50;;;;;;5029771;28;20532;-86
2021/06/15 07:11:07;;;;;;;2.97;1.05;;;20.20;69.60;;;;;;5025559;28;20033;-86
2021/06/15 07:13:33;;;;;;;4.72;1.20;;;20.30;69.70;;;;;;5032898;28;20467;-86
2021/06/15 07:15:58;;;;;;;5.32;1.45;;;20.30;69.40;;;;;;5032929;28;20032;-86
2021/06/15 07:18:24;;;;;;;4.38;1.30;;;20.40;70.10;;;;;;5016336;28;20478;-86
2021/06/15 07:20:50;;;;;;;3.95;1.48;;;20.40;69.50;;;;;;5024529;28;20026;-86
2021/06/15 07:23:16;;;;;;;5.15;1.30;;;20.40;69.60;;;;;;5010821;28;20021;-86
2021/06/15 07:25:42;;;;;;;3.28;1.35;;;20.50;69.30;;;;;;4999959;28;20026;-86
2021/06/15 07:28:08;;;;;;;4.90;1.50;;;20.50;69.00;;;;;;5026245;22;20482;-85
2021/06/15 07:30:34;;;;;;;2.92;1.30;;;20.50;69.00;;;;;;4974482;28;20023;-84
2021/06/15 07:33:00;;;;;;;4.05;1.23;;;20.60;69.10;;;;;;4983805;28;20033;-84
2021/06/15 07:35:27;;;;;;;3.83;1.10;;;20.60;69.20;;;;;;4956445;28;20027;-85
2021/06/15 07:37:54;;;;;;;4.30;1.25;;;20.70;69.50;;;;;;4973757;28;20042;-84
2021/06/15 07:40:23;;;;;;;2.15;0.77;;;20.70;69.20;;;;;;4973916;28;20037;-84
2021/06/15 07:42:54;;;;;;;3.85;1.42;;;20.80;69.30;;;;;;4989961;28;20027;-84
2021/06/15 07:45:21;;;;;;;3.55;1.13;;;20.80;69.30;;;;;;4990010;28;20490;-84
2021/06/15 07:47:47;;;;;;;4.28;1.20;;;20.90;68.70;;;;;;4973671;28;20034;-84
2021/06/15 07:50:14;;;;;;;7.20;1.58;;;20.90;68.30;;;;;;4989732;28;20475;-84
2021/06/15 07:52:40;;;;;;;4.32;1.30;;;20.90;68.40;;;;;;4989786;28;20034;-85
2021/06/15 07:55:06;;;;;;;3.25;1.30;;;21.00;68.30;;;;;;4973618;28;20030;-84
2021/06/15 07:57:32;;;;;;;3.55;1.10;;;21.10;67.80;;;;;;4973529;28;20061;-84
2021/06/15 07:59:58;;;;;;;4.03;1.00;;;21.10;67.40;;;;;;4973436;28;20061;-84
2021/06/15 08:02:23;;;;;;;2.58;0.80;;;21.10;67.20;;;;;;4989816;28;20031;-84
2021/06/15 08:04:49;;;;;;;2.72;0.90;;;21.10;67.20;;;;;;4973530;28;20034;-85
2021/06/15 08:07:15;;;;;;;4.10;1.00;;;21.20;67.10;;;;;;4973396;28;20129;-84
2021/06/15 08:09:41;;;;;;;3.42;0.98;;;21.20;66.40;;;;;;4973196;28;20117;-84
2021/06/15 08:12:07;;;;;;;3.63;1.35;;;21.20;66.40;;;;;;4989611;28;20022;-84
2021/06/15 08:14:32;;;;;;;4.43;1.48;;;21.30;66.00;;;;;;4972972;28;20038;-85
2021/06/15 08:16:58;;;;;;;2.67;1.00;;;21.30;66.00;;;;;;4973203;28;20049;-84
2021/06/15 08:19:25;;;;;;;2.88;0.90;;;21.40;65.40;;;;;;4973402;28;20045;-85
2021/06/15 08:21:51;;;;;;;4.32;0.90;;;21.40;65.30;;;;;;4989427;28;20030;-84
2021/06/15 08:24:17;;;;;;;3.15;1.15;;;21.40;65.30;;;;;;4973296;28;20030;-84
2021/06/15 08:26:43;;;;;;;2.83;1.05;;;21.50;65.60;;;;;;4973237;28;20052;-84
2021/06/15 08:29:09;;;;;;;2.85;0.70;;;21.50;65.60;;;;;;4989090;28;20093;-84
2021/06/15 08:31:35;;;;;;;3.50;0.88;;;21.50;66.00;;;;;;4972999;28;20792;-84
2021/06/15 08:34:01;;;;;;;2.85;1.23;;;21.60;65.50;;;;;;4989257;28;20038;-84
2021/06/15 08:36:26;;;;;;;4.50;1.17;;;21.60;65.40;;;;;;4973171;28;20022;-84
2021/06/15 08:38:52;;;;;;;2.42;0.95;;;21.70;65.10;;;;;;4973009;28;20023;-84
2021/06/15 08:41:19;;;;;;;2.25;0.80;;;21.70;64.90;;;;;;4973036;28;20111;-84
2021/06/15 08:43:45;;;;;;;2.40;0.85;;;21.70;64.40;;;;;;4989092;28;20030;-84
2021/06/15 08:46:12;;;;;;;2.60;0.73;;;21.70;64.60;;;;;;4972912;28;20053;-84
2021/06/15 08:48:47;;;;;;;4.68;0.82;;;21.80;64.80;;;;;;4989058;28;20041;-84
2021/06/15 08:51:13;;;;;;;3.80;1.23;;;21.80;65.00;;;;;;4972573;28;20453;-84
2021/06/15 08:53:39;;;;;;;2.53;0.90;;;21.80;64.80;;;;;;4972891;28;20028;-84
2021/06/15 08:56:28;;;;;;;4.88;1.25;;;21.90;64.40;;;;;;4972924;28;20027;-84
2021/06/15 08:59:14;;;;;;;3.63;1.15;;;21.90;64.50;;;;;;4990186;28;20045;-84
2021/06/15 09:01:41;;;;;;;2.17;0.80;;;22.00;64.30;;;;;;4993422;28;20464;-84
2021/06/15 09:04:06;;;;;;;1.33;0.80;;;22.10;64.30;;;;;;4990337;28;20487;-84
2021/06/15 09:06:32;;;;;;;3.45;0.75;;;22.10;63.60;;;;;;4972677;28;20026;-84
2021/06/15 09:08:59;;;;;;;3.90;1.10;;;22.20;63.20;;;;;;4972533;28;20123;-84
2021/06/15 09:11:27;;;;;;;3.92;1.20;;;22.20;62.60;;;;;;4988654;28;20034;-84
2021/06/15 09:13:54;;;;;;;3.00;1.30;;;22.20;62.00;;;;;;4988688;28;20037;-84
2021/06/15 09:16:35;;;;;;;4.45;1.05;;;22.30;62.00;;;;;;4972518;28;20113;-84
2021/06/15 09:19:12;;;;;;;;;;;22.30;62.00;;;;;;4990478;28;20045;-84
2021/06/15 09:21:41;;;;;;;2.28;0.93;;;22.30;62.60;;;;;;4989904;28;19916;-84
2021/06/15 09:24:15;;;;;;;2.35;0.93;;;22.40;62.90;;;;;;4988638;28;20031;-84
2021/06/15 09:27:10;;;;;;;3.45;1.25;;;22.50;62.90;;;;;;4989953;28;20130;-84
2021/06/15 09:29:38;;;;;;;3.35;1.10;;;22.60;62.10;;;;;;4991766;28;20068;-84
2021/06/15 09:32:06;;;;;;;3.25;1.10;;;22.60;61.80;;;;;;4992037;28;20061;-84
2021/06/15 09:34:32;;;;;;;5.63;1.23;;;22.70;62.10;;;;;;4992077;28;20022;-84
2021/06/15 09:36:59;;;;;;;3.17;0.73;;;22.80;62.10;;;;;;4975609;28;20034;-84
2021/06/15 09:39:25;;;;;;;4.07;1.33;;;22.80;62.50;;;;;;4975746;28;20019;-84
2021/06/15 09:41:50;;;;;;;3.40;1.10;;;22.90;61.90;;;;;;4991945;28;20517;-84
2021/06/15 09:44:20;;;;;;;4.53;1.00;;;22.90;60.90;;;;;;4975637;28;20175;-84
2021/06/15 09:46:49;;;;;;;4.60;1.13;;;22.90;60.60;;;;;;4991851;28;20027;-84
2021/06/15 09:49:27;;;;;;;4.05;1.33;;;22.90;61.00;;;;;;4991646;28;20403;-84
2021/06/15 09:52:12;;;;;;;4.20;1.10;;;23.00;61.00;;;;;;4991634;28;20057;-84
2021/06/15 09:54:45;;;;;;;4.53;1.65;;;23.10;59.90;;;;;;4991612;28;20056;-84
2021/06/15 09:57:16;;;;;;;3.10;1.10;;;23.10;59.30;;;;;;4991653;28;20035;-84
2021/06/15 10:00:10;;;;;;;3.00;1.10;;;23.10;59.70;;;;;;4992899;28;20030;-84
2021/06/15 10:02:57;;;;;;;3.47;1.23;;;23.20;60.30;;;;;;4991574;28;20029;-84
2021/06/15 10:05:23;;;;;;;2.67;1.10;;;23.30;60.10;;;;;;4991380;28;20037;-84
2021/06/15 10:07:50;;;;;;;1.20;0.70;;;23.30;60.30;;;;;;4991530;28;20030;-84
2021/06/15 10:10:20;;;;;;;2.72;1.05;;;23.40;60.10;;;;;;4975283;28;20023;-84
2021/06/15 10:12:48;;;;;;;3.63;1.40;;;23.40;60.40;;;;;;4975811;28;20026;-84
2021/06/15 10:15:14;;;;;;;5.78;1.05;;;23.50;60.40;;;;;;4991363;28;20079;-84
2021/06/15 10:17:41;;;;;;;2.58;0.98;;;23.60;60.40;;;;;;4991446;28;20026;-84
2021/06/15 10:20:08;;;;;;;2.45;0.70;;;23.70;59.80;;;;;;4992591;28;20050;-84
2021/06/15 10:22:36;;;;;;;2.50;0.90;;;23.70;59.50;;;;;;4958895;28;20038;-84
2021/06/15 10:25:03;;;;;;;2.60;0.80;;;23.80;59.80;;;;;;4991187;28;20026;-84
2021/06/15 10:27:28;;;;;;;2.85;1.10;;;23.90;59.80;;;;;;4991283;28;20022;-84
2021/06/15 10:29:54;;;;;;;0.70;0.55;;;24.00;58.80;;;;;;4974674;28;20061;-84
2021/06/15 10:32:22;;;;;;;1.38;0.60;;;24.10;58.60;;;;;;4974944;28;20391;-84
2021/06/15 10:35:03;;;;;;;2.63;0.77;;;24.10;58.80;;;;;;4990987;28;20018;-84
2021/06/15 10:37:35;;;;;;;1.88;0.73;;;24.20;58.40;;;;;;4991043;28;20472;-84
2021/06/15 10:40:12;;;;;;;3.10;0.90;;;24.20;58.20;;;;;;4991214;28;20038;-84
2021/06/15 10:42:38;;;;;;;3.10;0.77;;;24.30;58.00;;;;;;4992344;28;20040;-85
2021/06/15 10:45:13;;;;;;;3.28;0.80;;;24.40;56.50;;;;;;4974706;28;20026;-84
2021/06/15 10:48:04;;;;;;;5.38;1.15;;;24.40;56.90;;;;;;4992132;28;20030;-85
2021/06/15 10:50:40;;;;;;;2.50;0.73;;;24.50;56.60;;;;;;4990773;28;20075;-85
2021/06/15 10:53:11;;;;;;;3.33;0.90;;;24.50;57.30;;;;;;4990703;28;20394;-84
2021/06/15 10:56:02;;;;;;;4.07;1.00;;;24.60;57.10;;;;;;4991074;28;20064;-84
2021/06/15 10:58:44;;;;;;;;;;;24.60;54.40;;;;;;4991081;28;20504;-84
2021/06/15 11:01:13;;;;;;;3.00;0.90;;;24.60;54.20;;;;;;4990775;28;20279;-84
2021/06/15 11:03:53;;;;;;;2.88;0.80;;;24.70;55.80;;;;;;4990680;28;20045;-84
2021/06/15 11:06:57;;;;;;;4.60;0.88;;;24.80;56.60;;;;;;4973564;28;20432;-84
2021/06/15 11:09:25;;;;;;;2.10;0.90;;;24.80;56.70;;;;;;4979343;28;20026;-85
2021/06/15 11:12:04;;;;;;;2.65;1.10;;;24.90;56.70;;;;;;4974240;28;20466;-85
2021/06/15 11:14:30;;;;;;;1.85;0.80;;;25.00;56.60;;;;;;4996411;28;20109;-84
2021/06/15 11:16:59;;;;;;;2.63;0.82;;;25.10;56.10;;;;;;4974015;28;20523;-85
2021/06/15 11:19:25;;;;;;;3.00;1.17;;;25.20;56.10;;;;;;4974283;28;20034;-85
2021/06/15 11:21:52;;;;;;;2.53;1.00;;;25.30;55.40;;;;;;4991045;28;20068;-84
2021/06/15 11:24:55;;;;;;;2.42;0.80;;;25.30;55.20;;;;;;4970869;28;20049;-84
2021/06/15 11:27:40;;;;;;;3.55;1.00;;;25.30;54.60;;;;;;4992822;28;20025;-85
2021/06/15 11:30:12;;;;;;;2.22;0.82;;;25.40;55.20;;;;;;4957757;28;20184;-84
2021/06/15 11:32:37;;;;;;;3.67;0.90;;;25.50;54.90;;;;;;4993299;28;20063;-84
2021/06/15 11:35:03;;;;;;;3.40;0.98;;;25.50;54.70;;;;;;4957800;28;20039;-85
2021/06/15 11:37:33;;;;;;;3.05;1.10;;;25.50;54.30;;;;;;4993167;28;20026;-84
2021/06/15 11:40:20;;;;;;;2.10;0.85;;;25.60;54.40;;;;;;4989896;28;20050;-84
2021/06/15 11:42:55;;;;;;;2.83;1.10;;;25.70;54.60;;;;;;4987104;28;20148;-85
2021/06/15 11:45:47;;;;;;;3.30;1.30;;;25.80;54.60;;;;;;4986689;28;20117;-85
2021/06/15 11:48:15;;;;;;;4.00;1.30;;;25.90;54.80;;;;;;4969372;28;20126;-85
2021/06/15 11:50:45;;;;;;;3.88;1.10;;;25.90;54.20;;;;;;4977611;28;20030;-85
2021/06/15 11:53:19;;;;;;;3.17;1.13;;;26.00;53.20;;;;;;4980788;28;20387;-84
2021/06/15 11:55:48;;;;;;;3.75;1.13;;;26.10;53.20;;;;;;4989953;28;20380;-85
2021/06/15 11:58:24;;;;;;;2.33;1.35;;;26.10;52.90;;;;;;4992793;28;20071;-84
2021/06/15 12:00:59;;;;;;;2.20;1.10;;;26.10;52.60;;;;;;4989238;28;20026;-85
2021/06/15 12:03:33;;;;;;;2.70;0.93;;;26.20;52.70;;;;;;4992876;28;20049;-85
2021/06/15 12:05:59;;;;;;;4.53;1.20;;;26.20;52.50;;;;;;4989308;28;20130;-84
2021/06/15 12:08:29;;;;;;;3.63;1.02;;;26.20;52.00;;;;;;4973345;28;20171;-84
2021/06/15 12:10:55;;;;;;;2.80;0.80;;;26.20;51.50;;;;;;4992715;28;20045;-84
2021/06/15 12:13:23;;;;;;;4.07;1.02;;;26.30;52.30;;;;;;4973176;28;20030;-84
2021/06/15 12:15:52;;;;;;;2.90;1.13;;;26.40;52.40;;;;;;4989409;28;20472;-84
2021/06/15 12:18:23;;;;;;;2.58;1.05;;;26.40;51.90;;;;;;4992403;28;20006;-84
2021/06/15 12:20:55;;;;;;;3.67;1.20;;;26.50;52.10;;;;;;4976160;28;20045;-84
2021/06/15 12:23:48;;;;;;;5.38;1.42;;;26.50;51.50;;;;;;4990326;28;20031;-84
2021/06/15 12:26:18;;;;;;;2.38;0.80;;;26.50;52.00;;;;;;4981232;28;20038;-83
2021/06/15 12:28:48;;;;;;;2.75;1.15;;;26.50;51.70;;;;;;4972746;28;20349;-84
2021/06/15 12:31:17;;;;;;;3.55;1.38;;;26.60;52.20;;;;;;4990350;28;20079;-84
2021/06/15 12:33:45;;;;;;;4.53;1.25;;;26.60;52.20;;;;;;4985701;28;20395;-84
2021/06/15 12:36:14;;;;;;;2.95;1.30;;;26.70;52.10;;;;;;4983644;28;20478;-84
2021/06/15 12:38:40;;;;;;;3.10;1.17;;;26.70;52.30;;;;;;4990252;28;20096;-84
2021/06/15 12:41:10;;;;;;;4.00;1.33;;;26.70;52.80;;;;;;4965768;28;20380;-83
2021/06/15 12:43:36;;;;;;;3.95;1.30;;;26.80;50.80;;;;;;4982520;28;20109;-83
2021/06/15 12:46:11;;;;;;;2.95;1.15;;;26.80;49.80;;;;;;4985497;28;20025;-84
2021/06/15 12:49:06;;;;;;;3.67;1.10;;;26.80;50.60;;;;;;4972374;28;20433;-84
2021/06/15 12:51:45;;;;;;;3.22;1.15;;;26.80;50.50;;;;;;4975821;28;20039;-84
2021/06/15 12:54:32;;;;;;;3.45;1.23;;;26.80;50.10;;;;;;4972584;28;20038;-84
2021/06/15 12:57:02;;;;;;;2.50;1.15;;;26.90;50.60;;;;;;4972646;28;20030;-84
2021/06/15 12:59:30;;;;;;;3.22;1.10;;;26.90;50.40;;;;;;4974979;28;20030;-83
2021/06/15 13:01:56;;;;;;;3.70;1.60;;;26.90;50.50;;;;;;4991230;28;20022;-83
2021/06/15 13:04:26;;;;;;;4.70;1.35;;;27.00;49.70;;;;;;4989818;28;20037;-84
2021/06/15 13:06:54;;;;;;;4.00;1.13;;;27.00;49.40;;;;;;4956648;28;20031;-83
2021/06/15 13:09:25;;;;;;;3.92;1.45;;;26.90;49.30;;;;;;4973243;28;20038;-83